sensor_id;sensor_type;location;lat;lon;timestamp;temperature;humidity
73149;SHT30;61346;48.930;2.266;2022-10-16T06:03:21;17.22;74.54
73149;SHT30;61346;48.930;2.266;2022-10-16T06:05:46;17.25;74.54
73149;SHT30;61346;48.930;2.266;2022-10-16T06:08:40;17.23;74.53
73149;SHT30;61346;48.930;2.266;2022-10-16T08:19:00;18.63;74.36
73149;SHT30;61346;48.930;2.266;2022-10-16T08:21:26;18.73;74.31
73149;SHT30;61346;48.930;2.266;2022-10-16T08:23:53;18.80;74.15
73149;SHT30;61346;48.930;2.266;2022-10-16T08:26:19;18.86;73.95
73149;SHT30;61346;48.930;2.266;2022-10-16T08:28:49;18.87;73.86
73149;SHT30;61346;48.930;2.266;2022-10-16T08:31:16;18.88;73.72
73149;SHT30;61346;48.930;2.266;2022-10-16T08:33:43;18.84;73.73
73149;SHT30;61346;48.930;2.266;2022-10-16T08:36:10;18.87;73.70
73149;SHT30;61346;48.930;2.266;2022-10-16T08:38:37;18.84;73.57
73149;SHT30;61346;48.930;2.266;2022-10-16T08:47:24;18.76;73.62
73149;SHT30;61346;48.930;2.266;2022-10-16T08:54:03;18.86;73.55
73149;SHT30;61346;48.930;2.266;2022-10-16T09:17:19;19.91;72.96
73149;SHT30;61346;48.930;2.266;2022-10-16T09:19:58;20.03;72.61
73149;SHT30;61346;48.930;2.266;2022-10-16T09:22:27;20.07;72.33
73149;SHT30;61346;48.930;2.266;2022-10-16T09:24:59;20.13;72.43
73149;SHT30;61346;48.930;2.266;2022-10-16T09:27:26;20.24;72.32
73149;SHT30;61346;48.930;2.266;2022-10-16T09:29:51;20.34;72.24
73149;SHT30;61346;48.930;2.266;2022-10-16T09:32:23;20.46;72.16
73149;SHT30;61346;48.930;2.266;2022-10-16T09:34:58;20.57;72.00
73149;SHT30;61346;48.930;2.266;2022-10-16T09:38:27;20.62;71.75
73149;SHT30;61346;48.930;2.266;2022-10-16T09:40:46;20.63;71.61
73149;SHT30;61346;48.930;2.266;2022-10-16T09:43:35;20.61;71.51
73149;SHT30;61346;48.930;2.266;2022-10-16T09:46:24;20.62;71.51
73149;SHT30;61346;48.930;2.266;2022-10-16T09:48:51;20.61;71.45
73149;SHT30;61346;48.930;2.266;2022-10-16T09:51:23;20.62;71.48
73149;SHT30;61346;48.930;2.266;2022-10-16T09:53:54;20.66;71.42
73149;SHT30;61346;48.930;2.266;2022-10-16T09:56:32;20.68;71.30
73149;SHT30;61346;48.930;2.266;2022-10-16T09:59:08;20.73;71.41
73149;SHT30;61346;48.930;2.266;2022-10-16T10:01:46;20.82;71.40
73149;SHT30;61346;48.930;2.266;2022-10-16T10:04:12;20.86;71.37
73149;SHT30;61346;48.930;2.266;2022-10-16T10:06:48;20.90;71.19
73149;SHT30;61346;48.930;2.266;2022-10-16T10:09:42;20.94;71.05
73149;SHT30;61346;48.930;2.266;2022-10-16T10:12:26;20.92;70.87
73149;SHT30;61346;48.930;2.266;2022-10-16T21:06:41;19.21;76.53
73149;SHT30;61346;48.930;2.266;2022-10-16T21:09:08;19.21;76.66
73149;SHT30;61346;48.930;2.266;2022-10-16T21:11:35;19.21;76.73
73149;SHT30;61346;48.930;2.266;2022-10-16T21:14:05;19.22;76.74
73149;SHT30;61346;48.930;2.266;2022-10-16T21:16:31;19.22;76.77
73149;SHT30;61346;48.930;2.266;2022-10-16T21:18:58;19.24;76.86
73149;SHT30;61346;48.930;2.266;2022-10-16T21:21:26;19.25;76.82
73149;SHT30;61346;48.930;2.266;2022-10-16T21:23:53;19.24;76.91
73149;SHT30;61346;48.930;2.266;2022-10-16T21:26:42;19.26;76.97
73149;SHT30;61346;48.930;2.266;2022-10-16T21:29:10;19.24;76.97
73149;SHT30;61346;48.930;2.266;2022-10-16T21:31:57;19.28;77.01
73149;SHT30;61346;48.930;2.266;2022-10-16T21:34:23;19.28;77.04
73149;SHT30;61346;48.930;2.266;2022-10-16T21:36:48;19.28;77.10
73149;SHT30;61346;48.930;2.266;2022-10-16T21:39:18;19.29;77.10
73149;SHT30;61346;48.930;2.266;2022-10-16T21:41:47;19.29;77.12
73149;SHT30;61346;48.930;2.266;2022-10-16T21:44:14;19.31;77.17
73149;SHT30;61346;48.930;2.266;2022-10-16T21:46:41;19.31;77.22
73149;SHT30;61346;48.930;2.266;2022-10-16T21:49:12;19.34;77.22
73149;SHT30;61346;48.930;2.266;2022-10-16T21:51:40;19.32;77.24
73149;SHT30;61346;48.930;2.266;2022-10-16T21:54:09;19.35;77.25
73149;SHT30;61346;48.930;2.266;2022-10-16T21:56:35;19.39;77.30
73149;SHT30;61346;48.930;2.266;2022-10-16T21:59:01;19.38;77.27
73149;SHT30;61346;48.930;2.266;2022-10-16T22:01:29;19.41;77.28
73149;SHT30;61346;48.930;2.266;2022-10-16T22:03:55;19.42;77.32
73149;SHT30;61346;48.930;2.266;2022-10-16T22:06:23;19.41;77.31
73149;SHT30;61346;48.930;2.266;2022-10-16T22:08:50;19.41;77.31
73149;SHT30;61346;48.930;2.266;2022-10-16T22:11:25;19.42;77.31
73149;SHT30;61346;48.930;2.266;2022-10-16T22:13:51;19.41;77.30
73149;SHT30;61346;48.930;2.266;2022-10-16T22:16:21;19.42;77.40
73149;SHT30;61346;48.930;2.266;2022-10-16T22:18:49;19.42;77.42
73149;SHT30;61346;48.930;2.266;2022-10-16T22:21:17;19.44;77.52
73149;SHT30;61346;48.930;2.266;2022-10-16T22:23:46;19.48;77.47
73149;SHT30;61346;48.930;2.266;2022-10-16T22:26:11;19.51;77.50
73149;SHT30;61346;48.930;2.266;2022-10-16T22:28:38;19.58;77.47
73149;SHT30;61346;48.930;2.266;2022-10-16T22:31:12;19.58;77.39
73149;SHT30;61346;48.930;2.266;2022-10-16T22:33:38;19.62;77.39
73149;SHT30;61346;48.930;2.266;2022-10-16T22:36:24;19.62;77.38
73149;SHT30;61346;48.930;2.266;2022-10-16T22:38:50;19.61;77.37
73149;SHT30;61346;48.930;2.266;2022-10-16T22:41:15;19.62;77.37
73149;SHT30;61346;48.930;2.266;2022-10-16T22:43:43;19.63;77.37
73149;SHT30;61346;48.930;2.266;2022-10-16T22:46:12;19.63;77.32
73149;SHT30;61346;48.930;2.266;2022-10-16T22:48:39;19.65;77.37
73149;SHT30;61346;48.930;2.266;2022-10-16T22:51:05;19.65;77.38
73149;SHT30;61346;48.930;2.266;2022-10-16T22:53:31;19.65;77.33
73149;SHT30;61346;48.930;2.266;2022-10-16T22:55:56;19.65;77.39
73149;SHT30;61346;48.930;2.266;2022-10-16T22:58:22;19.66;77.33
73149;SHT30;61346;48.930;2.266;2022-10-16T23:00:47;19.65;77.33
73149;SHT30;61346;48.930;2.266;2022-10-16T23:03:13;19.67;77.27
73149;SHT30;61346;48.930;2.266;2022-10-16T23:05:49;19.66;77.25
73149;SHT30;61346;48.930;2.266;2022-10-16T23:08:15;19.65;77.27
73149;SHT30;61346;48.930;2.266;2022-10-16T23:10:42;19.62;77.30
73149;SHT30;61346;48.930;2.266;2022-10-16T23:13:08;19.63;77.31
73149;SHT30;61346;48.930;2.266;2022-10-16T23:15:34;19.65;77.30
73149;SHT30;61346;48.930;2.266;2022-10-16T23:17:59;19.66;77.33
73149;SHT30;61346;48.930;2.266;2022-10-16T23:20:25;19.66;77.33
73149;SHT30;61346;48.930;2.266;2022-10-16T23:22:50;19.66;77.31
73149;SHT30;61346;48.930;2.266;2022-10-16T23:25:16;19.70;77.30
73149;SHT30;61346;48.930;2.266;2022-10-16T23:27:42;19.69;77.29
73149;SHT30;61346;48.930;2.266;2022-10-16T23:30:08;19.70;77.29
73149;SHT30;61346;48.930;2.266;2022-10-16T23:32:33;19.72;77.22
73149;SHT30;61346;48.930;2.266;2022-10-16T23:34:59;19.70;77.19
73149;SHT30;61346;48.930;2.266;2022-10-16T23:37:24;19.73;77.21
73149;SHT30;61346;48.930;2.266;2022-10-16T23:39:50;19.72;77.21
73149;SHT30;61346;48.930;2.266;2022-10-16T23:42:16;19.74;77.21
73149;SHT30;61346;48.930;2.266;2022-10-16T23:44:45;19.74;77.15
73149;SHT30;61346;48.930;2.266;2022-10-16T23:47:11;19.72;77.18
73149;SHT30;61346;48.930;2.266;2022-10-16T23:49:36;19.73;77.19
73149;SHT30;61346;48.930;2.266;2022-10-16T23:52:02;19.76;77.13
73149;SHT30;61346;48.930;2.266;2022-10-16T23:54:27;19.74;77.18
73149;SHT30;61346;48.930;2.266;2022-10-16T23:56:53;19.74;77.19
73149;SHT30;61346;48.930;2.266;2022-10-16T23:59:19;19.77;77.17
